sensor_id;sensor_type;location;lat;lon;timestamp;P1;durP1;ratioP1;P2;durP2;ratioP2
17606;SDS011;69222;52.242;20.980;2023-11-21T00:00:17;16.47;;;11.47;;
17606;SDS011;69222;52.242;20.980;2023-11-21T00:02:47;14.70;;;10.23;;
17606;SDS011;69222;52.242;20.980;2023-11-21T00:05:15;17.23;;;11.83;;
17606;SDS011;69222;52.242;20.980;2023-11-21T00:07:43;18.67;;;12.10;;
17606;SDS011;69222;52.242;20.980;2023-11-21T00:10:11;15.33;;;10.70;;
17606;SDS011;69222;52.242;20.980;2023-11-21T00:12:42;17.03;;;10.97;;
17606;SDS011;69222;52.242;20.980;2023-11-21T00:15:10;18.83;;;11.73;;
17606;SDS011;69222;52.242;20.980;2023-11-21T00:17:38;16.87;;;11.63;;
17606;SDS011;69222;52.242;20.980;2023-11-21T00:20:08;15.83;;;10.70;;
17606;SDS011;69222;52.242;20.980;2023-11-21T00:22:40;18.30;;;12.83;;
17606;SDS011;69222;52.242;20.980;2023-11-21T00:25:09;16.23;;;11.07;;
17606;SDS011;69222;52.242;20.980;2023-11-21T00:27:37;16.37;;;10.97;;
17606;SDS011;69222;52.242;20.980;2023-11-21T00:30:06;15.17;;;10.83;;
17606;SDS011;69222;52.242;20.980;2023-11-21T00:32:35;17.80;;;11.13;;
17606;SDS011;69222;52.242;20.980;2023-11-21T00:35:04;15.67;;;10.30;;
17606;SDS011;69222;52.242;20.980;2023-11-21T00:37:33;19.20;;;11.60;;
17606;SDS011;69222;52.242;20.980;2023-11-21T00:40:01;17.53;;;11.93;;
17606;SDS011;69222;52.242;20.980;2023-11-21T00:42:32;16.77;;;11.77;;
17606;SDS011;69222;52.242;20.980;2023-11-21T00:45:00;16.27;;;11.00;;
17606;SDS011;69222;52.242;20.980;2023-11-21T00:47:29;18.47;;;11.00;;
17606;SDS011;69222;52.242;20.980;2023-11-21T00:49:58;17.60;;;11.73;;
17606;SDS011;69222;52.242;20.980;2023-11-21T00:52:25;16.73;;;11.60;;
17606;SDS011;69222;52.242;20.980;2023-11-21T00:54:55;19.93;;;12.13;;
17606;SDS011;69222;52.242;20.980;2023-11-21T00:57:26;19.67;;;11.77;;
17606;SDS011;69222;52.242;20.980;2023-11-21T00:59:54;18.50;;;11.53;;
17606;SDS011;69222;52.242;20.980;2023-11-21T01:02:22;17.87;;;11.20;;
17606;SDS011;69222;52.242;20.980;2023-11-21T01:04:51;17.07;;;11.97;;
17606;SDS011;69222;52.242;20.980;2023-11-21T01:07:19;15.57;;;11.00;;
17606;SDS011;69222;52.242;20.980;2023-11-21T01:09:49;19.30;;;12.37;;
17606;SDS011;69222;52.242;20.980;2023-11-21T01:12:19;17.20;;;10.67;;
17606;SDS011;69222;52.242;20.980;2023-11-21T01:14:47;18.03;;;12.13;;
17606;SDS011;69222;52.242;20.980;2023-11-21T01:17:16;16.37;;;11.10;;
17606;SDS011;69222;52.242;20.980;2023-11-21T01:19:45;17.00;;;11.67;;
17606;SDS011;69222;52.242;20.980;2023-11-21T01:22:13;18.17;;;12.40;;
17606;SDS011;69222;52.242;20.980;2023-11-21T01:24:42;18.13;;;12.33;;
17606;SDS011;69222;52.242;20.980;2023-11-21T01:27:11;15.63;;;10.73;;
17606;SDS011;69222;52.242;20.980;2023-11-21T01:29:40;15.97;;;11.40;;
17606;SDS011;69222;52.242;20.980;2023-11-21T01:32:08;17.57;;;10.67;;
17606;SDS011;69222;52.242;20.980;2023-11-21T01:34:36;17.60;;;12.10;;
17606;SDS011;69222;52.242;20.980;2023-11-21T01:37:05;16.20;;;12.00;;
17606;SDS011;69222;52.242;20.980;2023-11-21T01:39:33;16.53;;;10.33;;
17606;SDS011;69222;52.242;20.980;2023-11-21T01:42:01;18.53;;;11.97;;
17606;SDS011;69222;52.242;20.980;2023-11-21T01:44:29;17.73;;;11.30;;
17606;SDS011;69222;52.242;20.980;2023-11-21T01:46:59;19.77;;;11.27;;
17606;SDS011;69222;52.242;20.980;2023-11-21T01:49:31;23.17;;;13.43;;
17606;SDS011;69222;52.242;20.980;2023-11-21T01:52:01;16.53;;;11.80;;
17606;SDS011;69222;52.242;20.980;2023-11-21T01:54:30;17.23;;;11.50;;
17606;SDS011;69222;52.242;20.980;2023-11-21T01:56:59;17.90;;;12.50;;
17606;SDS011;69222;52.242;20.980;2023-11-21T01:59:29;20.80;;;12.87;;
17606;SDS011;69222;52.242;20.980;2023-11-21T02:02:05;17.37;;;11.67;;
17606;SDS011;69222;52.242;20.980;2023-11-21T02:04:34;17.70;;;12.43;;
17606;SDS011;69222;52.242;20.980;2023-11-21T02:07:03;18.73;;;12.67;;
17606;SDS011;69222;52.242;20.980;2023-11-21T02:09:32;18.50;;;12.70;;
17606;SDS011;69222;52.242;20.980;2023-11-21T02:12:00;17.07;;;11.93;;
17606;SDS011;69222;52.242;20.980;2023-11-21T02:14:29;18.63;;;12.17;;
17606;SDS011;69222;52.242;20.980;2023-11-21T02:16:58;16.60;;;11.23;;
17606;SDS011;69222;52.242;20.980;2023-11-21T02:19:28;17.23;;;11.83;;
17606;SDS011;69222;52.242;20.980;2023-11-21T02:21:57;13.97;;;9.83;;
17606;SDS011;69222;52.242;20.980;2023-11-21T02:24:30;15.63;;;11.00;;
17606;SDS011;69222;52.242;20.980;2023-11-21T02:26:58;14.20;;;10.17;;
17606;SDS011;69222;52.242;20.980;2023-11-21T02:29:26;14.83;;;10.77;;
17606;SDS011;69222;52.242;20.980;2023-11-21T02:31:55;18.40;;;11.67;;
17606;SDS011;69222;52.242;20.980;2023-11-21T02:34:23;14.67;;;10.27;;
17606;SDS011;69222;52.242;20.980;2023-11-21T02:36:52;16.03;;;10.80;;
17606;SDS011;69222;52.242;20.980;2023-11-21T02:39:20;16.33;;;11.97;;
17606;SDS011;69222;52.242;20.980;2023-11-21T02:41:51;15.50;;;11.20;;
17606;SDS011;69222;52.242;20.980;2023-11-21T02:44:22;17.07;;;12.03;;
17606;SDS011;69222;52.242;20.980;2023-11-21T02:46:50;16.83;;;11.10;;
17606;SDS011;69222;52.242;20.980;2023-11-21T02:49:18;18.07;;;11.53;;
17606;SDS011;69222;52.242;20.980;2023-11-21T02:51:46;15.33;;;10.90;;
17606;SDS011;69222;52.242;20.980;2023-11-21T02:54:14;16.20;;;10.43;;
17606;SDS011;69222;52.242;20.980;2023-11-21T02:56:45;15.53;;;10.37;;
17606;SDS011;69222;52.242;20.980;2023-11-21T02:59:15;14.73;;;10.07;;
17606;SDS011;69222;52.242;20.980;2023-11-21T03:01:43;15.20;;;10.67;;
17606;SDS011;69222;52.242;20.980;2023-11-21T03:04:11;16.97;;;10.40;;
17606;SDS011;69222;52.242;20.980;2023-11-21T03:06:45;13.90;;;10.30;;
17606;SDS011;69222;52.242;20.980;2023-11-21T03:09:13;17.33;;;10.53;;
17606;SDS011;69222;52.242;20.980;2023-11-21T03:11:43;18.17;;;11.80;;
17606;SDS011;69222;52.242;20.980;2023-11-21T03:14:11;16.60;;;10.50;;
17606;SDS011;69222;52.242;20.980;2023-11-21T03:16:40;17.17;;;11.23;;
17606;SDS011;69222;52.242;20.980;2023-11-21T03:19:08;20.10;;;11.97;;
17606;SDS011;69222;52.242;20.980;2023-11-21T03:21:36;18.63;;;11.67;;
17606;SDS011;69222;52.242;20.980;2023-11-21T03:24:04;16.90;;;11.30;;
17606;SDS011;69222;52.242;20.980;2023-11-21T03:26:33;17.37;;;11.17;;
17606;SDS011;69222;52.242;20.980;2023-11-21T03:29:01;14.83;;;11.13;;
17606;SDS011;69222;52.242;20.980;2023-11-21T03:31:31;16.33;;;10.83;;
17606;SDS011;69222;52.242;20.980;2023-11-21T03:34:03;17.47;;;11.50;;
17606;SDS011;69222;52.242;20.980;2023-11-21T03:36:31;18.13;;;11.73;;
17606;SDS011;69222;52.242;20.980;2023-11-21T03:38:59;16.53;;;10.97;;
17606;SDS011;69222;52.242;20.980;2023-11-21T03:41:27;15.97;;;11.17;;
17606;SDS011;69222;52.242;20.980;2023-11-21T03:43:56;16.77;;;11.30;;
17606;SDS011;69222;52.242;20.980;2023-11-21T03:46:24;17.90;;;12.67;;
17606;SDS011;69222;52.242;20.980;2023-11-21T03:48:52;15.67;;;10.60;;
17606;SDS011;69222;52.242;20.980;2023-11-21T03:51:23;16.93;;;11.23;;
17606;SDS011;69222;52.242;20.980;2023-11-21T03:53:55;15.63;;;10.60;;
17606;SDS011;69222;52.242;20.980;2023-11-21T03:56:23;20.27;;;12.13;;
17606;SDS011;69222;52.242;20.980;2023-11-21T03:58:51;16.07;;;10.70;;
17606;SDS011;69222;52.242;20.980;2023-11-21T04:01:20;18.67;;;11.80;;
17606;SDS011;69222;52.242;20.980;2023-11-21T04:03:49;14.93;;;9.67;;
17606;SDS011;69222;52.242;20.980;2023-11-21T04:06:18;16.50;;;10.77;;
17606;SDS011;69222;52.242;20.980;2023-11-21T04:08:48;15.50;;;10.33;;
17606;SDS011;69222;52.242;20.980;2023-11-21T04:11:16;15.33;;;9.63;;
17606;SDS011;69222;52.242;20.980;2023-11-21T04:13:44;13.30;;;10.17;;
17606;SDS011;69222;52.242;20.980;2023-11-21T04:16:13;15.43;;;9.90;;
17606;SDS011;69222;52.242;20.980;2023-11-21T04:18:41;13.17;;;9.20;;
17606;SDS011;69222;52.242;20.980;2023-11-21T04:21:09;16.17;;;9.77;;
17606;SDS011;69222;52.242;20.980;2023-11-21T04:23:39;12.30;;;8.90;;
17606;SDS011;69222;52.242;20.980;2023-11-21T04:26:08;14.20;;;9.63;;
17606;SDS011;69222;52.242;20.980;2023-11-21T04:28:36;15.37;;;10.70;;
17606;SDS011;69222;52.242;20.980;2023-11-21T04:31:04;16.20;;;9.80;;
17606;SDS011;69222;52.242;20.980;2023-11-21T04:33:33;14.50;;;9.63;;
17606;SDS011;69222;52.242;20.980;2023-11-21T04:36:01;15.77;;;9.30;;
17606;SDS011;69222;52.242;20.980;2023-11-21T04:38:29;14.23;;;10.47;;
17606;SDS011;69222;52.242;20.980;2023-11-21T04:40:57;13.63;;;9.93;;
17606;SDS011;69222;52.242;20.980;2023-11-21T04:43:30;13.30;;;9.20;;
17606;SDS011;69222;52.242;20.980;2023-11-21T04:45:58;13.47;;;9.67;;
17606;SDS011;69222;52.242;20.980;2023-11-21T04:48:26;11.77;;;8.67;;
17606;SDS011;69222;52.242;20.980;2023-11-21T04:50:54;12.17;;;8.73;;
17606;SDS011;69222;52.242;20.980;2023-11-21T04:53:22;10.33;;;7.80;;
17606;SDS011;69222;52.242;20.980;2023-11-21T04:55:50;12.90;;;9.40;;
17606;SDS011;69222;52.242;20.980;2023-11-21T04:58:19;11.03;;;7.97;;
17606;SDS011;69222;52.242;20.980;2023-11-21T05:00:49;11.37;;;8.03;;
17606;SDS011;69222;52.242;20.980;2023-11-21T05:03:17;11.27;;;8.50;;
17606;SDS011;69222;52.242;20.980;2023-11-21T05:05:45;11.07;;;8.10;;
17606;SDS011;69222;52.242;20.980;2023-11-21T05:08:13;11.30;;;8.03;;
17606;SDS011;69222;52.242;20.980;2023-11-21T05:10:41;14.00;;;8.53;;
17606;SDS011;69222;52.242;20.980;2023-11-21T05:13:09;11.90;;;8.57;;
17606;SDS011;69222;52.242;20.980;2023-11-21T05:15:37;11.27;;;8.13;;
17606;SDS011;69222;52.242;20.980;2023-11-21T05:18:07;11.30;;;7.67;;
17606;SDS011;69222;52.242;20.980;2023-11-21T05:20:35;10.00;;;7.77;;
17606;SDS011;69222;52.242;20.980;2023-11-21T05:23:06;11.63;;;7.80;;
17606;SDS011;69222;52.242;20.980;2023-11-21T05:25:34;10.03;;;7.23;;
17606;SDS011;69222;52.242;20.980;2023-11-21T05:28:06;10.77;;;7.83;;
17606;SDS011;69222;52.242;20.980;2023-11-21T05:30:34;11.40;;;7.83;;
17606;SDS011;69222;52.242;20.980;2023-11-21T05:33:02;10.70;;;7.67;;
17606;SDS011;69222;52.242;20.980;2023-11-21T05:35:32;9.80;;;7.47;;
17606;SDS011;69222;52.242;20.980;2023-11-21T05:38:00;11.67;;;7.60;;
17606;SDS011;69222;52.242;20.980;2023-11-21T05:40:27;10.73;;;7.87;;
17606;SDS011;69222;52.242;20.980;2023-11-21T05:42:56;10.73;;;7.67;;
17606;SDS011;69222;52.242;20.980;2023-11-21T05:45:24;11.57;;;7.30;;
17606;SDS011;69222;52.242;20.980;2023-11-21T05:47:52;9.37;;;7.13;;
17606;SDS011;69222;52.242;20.980;2023-11-21T05:50:20;9.90;;;6.87;;
17606;SDS011;69222;52.242;20.980;2023-11-21T05:52:50;10.07;;;7.23;;
17606;SDS011;69222;52.242;20.980;2023-11-21T05:55:18;12.53;;;7.20;;
17606;SDS011;69222;52.242;20.980;2023-11-21T05:57:47;11.67;;;7.47;;
17606;SDS011;69222;52.242;20.980;2023-11-21T06:00:16;11.50;;;7.00;;
17606;SDS011;69222;52.242;20.980;2023-11-21T06:02:47;10.43;;;7.03;;
17606;SDS011;69222;52.242;20.980;2023-11-21T06:05:19;10.07;;;6.77;;
17606;SDS011;69222;52.242;20.980;2023-11-21T06:07:52;11.37;;;7.33;;
17606;SDS011;69222;52.242;20.980;2023-11-21T06:10:22;11.77;;;7.33;;
17606;SDS011;69222;52.242;20.980;2023-11-21T06:12:53;9.37;;;6.77;;
17606;SDS011;69222;52.242;20.980;2023-11-21T06:15:21;10.93;;;6.83;;
17606;SDS011;69222;52.242;20.980;2023-11-21T06:17:50;8.77;;;6.13;;
17606;SDS011;69222;52.242;20.980;2023-11-21T06:20:20;9.73;;;6.57;;
17606;SDS011;69222;52.242;20.980;2023-11-21T06:22:49;10.93;;;7.13;;
17606;SDS011;69222;52.242;20.980;2023-11-21T06:25:20;8.70;;;6.70;;
17606;SDS011;69222;52.242;20.980;2023-11-21T06:27:48;11.13;;;7.33;;
17606;SDS011;69222;52.242;20.980;2023-11-21T06:30:18;9.00;;;7.00;;
17606;SDS011;69222;52.242;20.980;2023-11-21T06:32:47;9.57;;;7.37;;
17606;SDS011;69222;52.242;20.980;2023-11-21T06:35:15;8.93;;;7.10;;
17606;SDS011;69222;52.242;20.980;2023-11-21T06:37:44;11.47;;;7.07;;
17606;SDS011;69222;52.242;20.980;2023-11-21T06:40:18;10.37;;;7.67;;
17606;SDS011;69222;52.242;20.980;2023-11-21T06:42:47;10.03;;;7.60;;
17606;SDS011;69222;52.242;20.980;2023-11-21T06:45:17;13.70;;;8.53;;
17606;SDS011;69222;52.242;20.980;2023-11-21T06:47:46;8.80;;;6.63;;
17606;SDS011;69222;52.242;20.980;2023-11-21T06:50:15;9.83;;;7.37;;
17606;SDS011;69222;52.242;20.980;2023-11-21T06:52:43;13.90;;;7.87;;
17606;SDS011;69222;52.242;20.980;2023-11-21T06:55:11;11.27;;;7.23;;
17606;SDS011;69222;52.242;20.980;2023-11-21T06:57:41;13.57;;;7.63;;
17606;SDS011;69222;52.242;20.980;2023-11-21T07:00:10;10.03;;;7.53;;
17606;SDS011;69222;52.242;20.980;2023-11-21T07:02:38;12.87;;;7.87;;
17606;SDS011;69222;52.242;20.980;2023-11-21T07:05:07;10.57;;;7.57;;
17606;SDS011;69222;52.242;20.980;2023-11-21T07:07:35;12.07;;;8.30;;
17606;SDS011;69222;52.242;20.980;2023-11-21T07:10:04;13.67;;;8.60;;
17606;SDS011;69222;52.242;20.980;2023-11-21T07:12:34;16.03;;;9.53;;
17606;SDS011;69222;52.242;20.980;2023-11-21T07:15:04;13.37;;;8.47;;
17606;SDS011;69222;52.242;20.980;2023-11-21T07:17:36;13.63;;;8.77;;
17606;SDS011;69222;52.242;20.980;2023-11-21T07:20:07;12.07;;;8.40;;
17606;SDS011;69222;52.242;20.980;2023-11-21T07:22:38;13.40;;;8.03;;
17606;SDS011;69222;52.242;20.980;2023-11-21T07:25:07;11.33;;;7.90;;
17606;SDS011;69222;52.242;20.980;2023-11-21T07:27:36;12.20;;;8.27;;
17606;SDS011;69222;52.242;20.980;2023-11-21T07:30:06;12.03;;;7.90;;
17606;SDS011;69222;52.242;20.980;2023-11-21T07:32:37;11.80;;;7.70;;
17606;SDS011;69222;52.242;20.980;2023-11-21T07:35:07;11.13;;;7.23;;
17606;SDS011;69222;52.242;20.980;2023-11-21T07:37:36;11.30;;;7.57;;
17606;SDS011;69222;52.242;20.980;2023-11-21T07:40:05;12.23;;;8.40;;
17606;SDS011;69222;52.242;20.980;2023-11-21T07:42:35;12.77;;;7.70;;
17606;SDS011;69222;52.242;20.980;2023-11-21T07:45:04;11.03;;;7.70;;
17606;SDS011;69222;52.242;20.980;2023-11-21T07:47:35;10.93;;;7.30;;
17606;SDS011;69222;52.242;20.980;2023-11-21T07:50:06;12.53;;;7.90;;
17606;SDS011;69222;52.242;20.980;2023-11-21T07:52:37;12.67;;;7.63;;
17606;SDS011;69222;52.242;20.980;2023-11-21T07:55:06;10.10;;;8.20;;
17606;SDS011;69222;52.242;20.980;2023-11-21T07:57:35;11.03;;;7.37;;
17606;SDS011;69222;52.242;20.980;2023-11-21T08:00:03;11.67;;;8.33;;
17606;SDS011;69222;52.242;20.980;2023-11-21T08:02:36;12.30;;;7.70;;
17606;SDS011;69222;52.242;20.980;2023-11-21T08:05:04;11.50;;;8.27;;
17606;SDS011;69222;52.242;20.980;2023-11-21T08:07:40;10.83;;;7.53;;
17606;SDS011;69222;52.242;20.980;2023-11-21T08:10:09;13.33;;;7.77;;
17606;SDS011;69222;52.242;20.980;2023-11-21T08:12:37;10.50;;;7.67;;
17606;SDS011;69222;52.242;20.980;2023-11-21T08:15:07;11.37;;;7.40;;
17606;SDS011;69222;52.242;20.980;2023-11-21T08:17:36;10.97;;;7.90;;
17606;SDS011;69222;52.242;20.980;2023-11-21T08:20:05;10.80;;;7.40;;
17606;SDS011;69222;52.242;20.980;2023-11-21T08:22:35;12.73;;;7.97;;
17606;SDS011;69222;52.242;20.980;2023-11-21T08:25:04;11.30;;;8.30;;
17606;SDS011;69222;52.242;20.980;2023-11-21T08:27:33;14.27;;;9.17;;
17606;SDS011;69222;52.242;20.980;2023-11-21T08:30:02;11.33;;;7.77;;
17606;SDS011;69222;52.242;20.980;2023-11-21T08:32:31;12.83;;;8.23;;
17606;SDS011;69222;52.242;20.980;2023-11-21T08:35:00;13.33;;;8.50;;
17606;SDS011;69222;52.242;20.980;2023-11-21T08:37:29;14.67;;;8.07;;
17606;SDS011;69222;52.242;20.980;2023-11-21T08:39:59;13.03;;;8.67;;
17606;SDS011;69222;52.242;20.980;2023-11-21T08:42:28;12.47;;;8.60;;
17606;SDS011;69222;52.242;20.980;2023-11-21T08:44:57;11.50;;;8.17;;
17606;SDS011;69222;52.242;20.980;2023-11-21T08:47:25;11.87;;;8.10;;
17606;SDS011;69222;52.242;20.980;2023-11-21T08:49:55;11.10;;;7.73;;
17606;SDS011;69222;52.242;20.980;2023-11-21T08:52:25;13.93;;;8.47;;
17606;SDS011;69222;52.242;20.980;2023-11-21T08:54:53;14.60;;;9.20;;
17606;SDS011;69222;52.242;20.980;2023-11-21T08:57:23;13.80;;;9.60;;
17606;SDS011;69222;52.242;20.980;2023-11-21T08:59:51;12.50;;;8.93;;
17606;SDS011;69222;52.242;20.980;2023-11-21T09:02:22;14.30;;;9.63;;
17606;SDS011;69222;52.242;20.980;2023-11-21T09:04:50;11.93;;;8.67;;
17606;SDS011;69222;52.242;20.980;2023-11-21T09:07:20;12.63;;;8.80;;
17606;SDS011;69222;52.242;20.980;2023-11-21T09:09:49;14.70;;;9.53;;
17606;SDS011;69222;52.242;20.980;2023-11-21T09:12:17;12.87;;;8.93;;
17606;SDS011;69222;52.242;20.980;2023-11-21T09:14:45;12.77;;;8.73;;
17606;SDS011;69222;52.242;20.980;2023-11-21T09:17:14;16.57;;;9.67;;
17606;SDS011;69222;52.242;20.980;2023-11-21T09:19:42;14.30;;;9.77;;
17606;SDS011;69222;52.242;20.980;2023-11-21T09:22:11;15.90;;;9.37;;
17606;SDS011;69222;52.242;20.980;2023-11-21T09:24:41;15.43;;;8.90;;
17606;SDS011;69222;52.242;20.980;2023-11-21T09:27:09;14.37;;;10.20;;
17606;SDS011;69222;52.242;20.980;2023-11-21T09:29:37;15.43;;;11.17;;
17606;SDS011;69222;52.242;20.980;2023-11-21T09:32:05;13.53;;;9.70;;
17606;SDS011;69222;52.242;20.980;2023-11-21T09:34:34;13.10;;;9.40;;
17606;SDS011;69222;52.242;20.980;2023-11-21T09:37:05;16.90;;;10.43;;
17606;SDS011;69222;52.242;20.980;2023-11-21T09:39:33;14.17;;;9.83;;
17606;SDS011;69222;52.242;20.980;2023-11-21T09:42:07;13.03;;;9.83;;
17606;SDS011;69222;52.242;20.980;2023-11-21T09:44:42;18.63;;;10.70;;
17606;SDS011;69222;52.242;20.980;2023-11-21T09:47:14;14.67;;;10.20;;
17606;SDS011;69222;52.242;20.980;2023-11-21T09:49:47;14.67;;;9.77;;
17606;SDS011;69222;52.242;20.980;2023-11-21T09:52:18;14.50;;;9.90;;
17606;SDS011;69222;52.242;20.980;2023-11-21T09:54:52;13.47;;;9.70;;
17606;SDS011;69222;52.242;20.980;2023-11-21T09:57:25;17.07;;;10.10;;
17606;SDS011;69222;52.242;20.980;2023-11-21T09:59:54;14.77;;;9.40;;
17606;SDS011;69222;52.242;20.980;2023-11-21T10:02:26;13.97;;;9.40;;
17606;SDS011;69222;52.242;20.980;2023-11-21T10:04:59;11.60;;;8.53;;
17606;SDS011;69222;52.242;20.980;2023-11-21T10:07:27;13.53;;;9.20;;
17606;SDS011;69222;52.242;20.980;2023-11-21T10:09:59;15.20;;;9.47;;
17606;SDS011;69222;52.242;20.980;2023-11-21T10:12:30;14.93;;;10.33;;
17606;SDS011;69222;52.242;20.980;2023-11-21T10:15:02;12.90;;;8.93;;
17606;SDS011;69222;52.242;20.980;2023-11-21T10:17:32;13.53;;;9.37;;
17606;SDS011;69222;52.242;20.980;2023-11-21T10:20:09;15.17;;;9.70;;
17606;SDS011;69222;52.242;20.980;2023-11-21T10:22:40;13.00;;;9.40;;
17606;SDS011;69222;52.242;20.980;2023-11-21T10:25:10;13.80;;;9.37;;
17606;SDS011;69222;52.242;20.980;2023-11-21T10:27:42;15.03;;;10.00;;
17606;SDS011;69222;52.242;20.980;2023-11-21T10:30:10;13.77;;;8.97;;
17606;SDS011;69222;52.242;20.980;2023-11-21T10:32:39;14.17;;;9.60;;
17606;SDS011;69222;52.242;20.980;2023-11-21T10:35:07;13.90;;;9.27;;
17606;SDS011;69222;52.242;20.980;2023-11-21T10:37:37;15.00;;;9.70;;
17606;SDS011;69222;52.242;20.980;2023-11-21T10:40:07;14.07;;;9.63;;
17606;SDS011;69222;52.242;20.980;2023-11-21T10:42:39;13.53;;;9.20;;
17606;SDS011;69222;52.242;20.980;2023-11-21T10:45:09;13.40;;;9.57;;
17606;SDS011;69222;52.242;20.980;2023-11-21T10:47:41;13.47;;;9.37;;
17606;SDS011;69222;52.242;20.980;2023-11-21T10:50:09;14.13;;;9.87;;
17606;SDS011;69222;52.242;20.980;2023-11-21T10:52:39;15.53;;;11.00;;
17606;SDS011;69222;52.242;20.980;2023-11-21T10:55:16;14.97;;;9.87;;
17606;SDS011;69222;52.242;20.980;2023-11-21T10:57:49;13.10;;;10.03;;
17606;SDS011;69222;52.242;20.980;2023-11-21T11:00:21;16.10;;;9.87;;
17606;SDS011;69222;52.242;20.980;2023-11-21T11:02:51;13.43;;;9.87;;
17606;SDS011;69222;52.242;20.980;2023-11-21T11:05:21;15.83;;;10.27;;
17606;SDS011;69222;52.242;20.980;2023-11-21T11:07:51;14.30;;;10.77;;
17606;SDS011;69222;52.242;20.980;2023-11-21T11:10:21;16.70;;;10.80;;
17606;SDS011;69222;52.242;20.980;2023-11-21T11:12:53;14.83;;;9.70;;
17606;SDS011;69222;52.242;20.980;2023-11-21T11:15:23;15.73;;;9.70;;
17606;SDS011;69222;52.242;20.980;2023-11-21T11:17:54;14.57;;;10.30;;
17606;SDS011;69222;52.242;20.980;2023-11-21T11:20:25;17.13;;;10.10;;
17606;SDS011;69222;52.242;20.980;2023-11-21T11:23:07;18.30;;;10.43;;
17606;SDS011;69222;52.242;20.980;2023-11-21T11:25:51;15.03;;;10.33;;
17606;SDS011;69222;52.242;20.980;2023-11-21T11:28:35;16.93;;;10.57;;
17606;SDS011;69222;52.242;20.980;2023-11-21T11:31:14;14.07;;;10.20;;
17606;SDS011;69222;52.242;20.980;2023-11-21T11:33:56;15.23;;;10.40;;
17606;SDS011;69222;52.242;20.980;2023-11-21T11:36:28;16.50;;;10.27;;
17606;SDS011;69222;52.242;20.980;2023-11-21T11:39:00;15.33;;;10.37;;
17606;SDS011;69222;52.242;20.980;2023-11-21T11:41:31;16.10;;;9.67;;
17606;SDS011;69222;52.242;20.980;2023-11-21T11:44:01;16.40;;;11.63;;
17606;SDS011;69222;52.242;20.980;2023-11-21T11:46:42;15.33;;;10.30;;
17606;SDS011;69222;52.242;20.980;2023-11-21T11:49:23;14.33;;;10.23;;
17606;SDS011;69222;52.242;20.980;2023-11-21T11:54:53;16.00;;;10.33;;
17606;SDS011;69222;52.242;20.980;2023-11-21T11:57:23;15.07;;;10.13;;
17606;SDS011;69222;52.242;20.980;2023-11-21T12:00:07;17.03;;;10.90;;
17606;SDS011;69222;52.242;20.980;2023-11-21T12:02:45;15.60;;;10.27;;
17606;SDS011;69222;52.242;20.980;2023-11-21T12:05:15;14.97;;;10.87;;
17606;SDS011;69222;52.242;20.980;2023-11-21T12:07:45;16.83;;;10.87;;
17606;SDS011;69222;52.242;20.980;2023-11-21T12:10:17;14.20;;;9.60;;
17606;SDS011;69222;52.242;20.980;2023-11-21T12:12:47;12.10;;;9.73;;
17606;SDS011;69222;52.242;20.980;2023-11-21T12:15:16;14.27;;;9.30;;
17606;SDS011;69222;52.242;20.980;2023-11-21T12:17:49;13.47;;;9.97;;
17606;SDS011;69222;52.242;20.980;2023-11-21T12:20:18;13.70;;;9.37;;
17606;SDS011;69222;52.242;20.980;2023-11-21T12:22:48;19.47;;;10.27;;
17606;SDS011;69222;52.242;20.980;2023-11-21T12:25:17;13.90;;;9.40;;
17606;SDS011;69222;52.242;20.980;2023-11-21T12:27:47;16.90;;;9.70;;
17606;SDS011;69222;52.242;20.980;2023-11-21T12:30:17;15.40;;;9.40;;
17606;SDS011;69222;52.242;20.980;2023-11-21T12:32:50;14.00;;;9.87;;
17606;SDS011;69222;52.242;20.980;2023-11-21T12:35:21;17.53;;;10.47;;
17606;SDS011;69222;52.242;20.980;2023-11-21T12:37:51;14.77;;;10.20;;
17606;SDS011;69222;52.242;20.980;2023-11-21T12:40:20;15.80;;;10.40;;
17606;SDS011;69222;52.242;20.980;2023-11-21T12:42:51;16.27;;;10.67;;
17606;SDS011;69222;52.242;20.980;2023-11-21T12:45:21;16.40;;;11.03;;
17606;SDS011;69222;52.242;20.980;2023-11-21T12:47:54;15.00;;;9.90;;
17606;SDS011;69222;52.242;20.980;2023-11-21T12:50:27;13.67;;;10.13;;
17606;SDS011;69222;52.242;20.980;2023-11-21T12:52:58;14.43;;;9.30;;
17606;SDS011;69222;52.242;20.980;2023-11-21T12:55:30;12.43;;;9.13;;
17606;SDS011;69222;52.242;20.980;2023-11-21T12:58:00;18.57;;;11.77;;
17606;SDS011;69222;52.242;20.980;2023-11-21T13:00:37;17.07;;;9.60;;
17606;SDS011;69222;52.242;20.980;2023-11-21T13:03:11;14.63;;;10.50;;
17606;SDS011;69222;52.242;20.980;2023-11-21T13:05:44;13.97;;;10.13;;
17606;SDS011;69222;52.242;20.980;2023-11-21T13:08:18;17.20;;;10.93;;
17606;SDS011;69222;52.242;20.980;2023-11-21T13:10:50;13.63;;;10.37;;
17606;SDS011;69222;52.242;20.980;2023-11-21T13:13:20;15.40;;;11.07;;
17606;SDS011;69222;52.242;20.980;2023-11-21T13:15:51;14.67;;;10.03;;
17606;SDS011;69222;52.242;20.980;2023-11-21T13:18:24;15.87;;;10.07;;
17606;SDS011;69222;52.242;20.980;2023-11-21T13:20:53;13.47;;;9.77;;
17606;SDS011;69222;52.242;20.980;2023-11-21T13:23:23;14.70;;;10.47;;
17606;SDS011;69222;52.242;20.980;2023-11-21T13:25:52;14.77;;;9.77;;
17606;SDS011;69222;52.242;20.980;2023-11-21T13:28:30;14.73;;;10.50;;
17606;SDS011;69222;52.242;20.980;2023-11-21T13:31:00;14.50;;;9.43;;
17606;SDS011;69222;52.242;20.980;2023-11-21T13:33:38;14.33;;;10.27;;
17606;SDS011;69222;52.242;20.980;2023-11-21T13:36:09;14.83;;;10.30;;
17606;SDS011;69222;52.242;20.980;2023-11-21T13:38:40;14.57;;;10.17;;
17606;SDS011;69222;52.242;20.980;2023-11-21T13:41:11;15.70;;;9.87;;
17606;SDS011;69222;52.242;20.980;2023-11-21T13:43:40;13.67;;;9.73;;
17606;SDS011;69222;52.242;20.980;2023-11-21T13:46:15;12.20;;;10.17;;
17606;SDS011;69222;52.242;20.980;2023-11-21T13:48:50;13.63;;;9.77;;
17606;SDS011;69222;52.242;20.980;2023-11-21T13:51:23;12.57;;;9.67;;
17606;SDS011;69222;52.242;20.980;2023-11-21T13:54:01;15.77;;;10.13;;
17606;SDS011;69222;52.242;20.980;2023-11-21T13:56:31;14.90;;;10.07;;
17606;SDS011;69222;52.242;20.980;2023-11-21T13:59:00;15.40;;;10.10;;
17606;SDS011;69222;52.242;20.980;2023-11-21T14:01:36;15.67;;;10.50;;
17606;SDS011;69222;52.242;20.980;2023-11-21T14:04:22;15.00;;;9.90;;
17606;SDS011;69222;52.242;20.980;2023-11-21T14:07:05;17.70;;;10.47;;
17606;SDS011;69222;52.242;20.980;2023-11-21T14:09:49;14.57;;;10.43;;
17606;SDS011;69222;52.242;20.980;2023-11-21T14:12:18;14.87;;;10.30;;
17606;SDS011;69222;52.242;20.980;2023-11-21T14:14:49;17.07;;;11.60;;
17606;SDS011;69222;52.242;20.980;2023-11-21T14:17:17;15.00;;;10.70;;
17606;SDS011;69222;52.242;20.980;2023-11-21T14:19:46;15.20;;;10.03;;
17606;SDS011;69222;52.242;20.980;2023-11-21T14:22:15;15.80;;;10.53;;
17606;SDS011;69222;52.242;20.980;2023-11-21T14:24:43;18.53;;;11.03;;
17606;SDS011;69222;52.242;20.980;2023-11-21T14:27:13;15.27;;;10.20;;
17606;SDS011;69222;52.242;20.980;2023-11-21T14:29:44;16.93;;;10.57;;
17606;SDS011;69222;52.242;20.980;2023-11-21T14:32:13;23.73;;;11.30;;
17606;SDS011;69222;52.242;20.980;2023-11-21T14:34:43;15.33;;;10.97;;